Time;durP1;ratioP1;P1;durP2;ratioP2;P2;SDS_P1;SDS_P2;PMS_P1;PMS_P2;Temp;Humidity;BMP_temperature;BMP_pressure;BME280_temperature;BME280_humidity;BME280_pressure;Samples;Min_cycle;Max_cycle;Signal;HPM_P1;HPM_P2
2022/03/27 00:00:44;;;;;;;11.90;8.93;;;7.40;99.90;;;;;;4995746;28;20412;-76
2022/03/27 00:03:16;;;;;;;11.10;8.48;;;7.30;99.90;;;;;;4961148;28;20124;-77
2022/03/27 00:05:41;;;;;;;13.38;8.45;;;7.20;99.90;;;;;;4995611;28;20495;-77
2022/03/27 00:08:08;;;;;;;12.15;8.02;;;7.30;99.90;;;;;;4978863;28;20038;-77
2022/03/27 00:11:23;;;;;;;13.05;8.50;;;7.30;99.90;;;;;;4979197;28;20042;-77
2022/03/27 00:13:19;;;;;;;13.98;8.38;;;7.20;99.90;;;;;;4994460;28;20423;-77
2022/03/27 00:15:45;;;;;;;10.85;7.45;;;7.10;99.90;;;;;;4979113;28;20053;-76
2022/03/27 00:18:11;;;;;;;9.70;7.25;;;7.10;99.90;;;;;;4979114;28;20042;-77
2022/03/27 00:20:39;;;;;;;10.15;7.50;;;7.10;99.90;;;;;;4995639;28;20092;-77
2022/03/27 00:23:08;;;;;;;12.93;7.65;;;7.00;99.90;;;;;;4979316;28;20474;-77
2022/03/27 00:25:34;;;;;;;12.43;8.95;;;7.00;99.90;;;;;;4994798;28;20133;-77
2022/03/27 00:28:03;;;;;;;11.18;7.53;;;6.80;99.90;;;;;;4979141;28;20136;-77
2022/03/27 00:30:32;;;;;;;10.07;7.57;;;6.80;99.90;;;;;;4979051;28;20049;-76
2022/03/27 00:32:58;;;;;;;12.73;8.35;;;6.70;99.90;;;;;;4994791;28;20042;-77
2022/03/27 00:35:23;;;;;;;12.50;7.82;;;6.60;99.90;;;;;;4979003;28;20141;-76
2022/03/27 00:37:51;;;;;;;12.60;8.15;;;6.50;99.90;;;;;;4994492;28;20111;-76
2022/03/27 00:40:19;;;;;;;11.63;8.65;;;6.40;99.90;;;;;;4994777;28;20045;-76
2022/03/27 00:42:47;;;;;;;11.60;8.82;;;6.30;99.90;;;;;;4975168;28;20049;-76
2022/03/27 00:45:13;;;;;;;12.57;8.40;;;6.30;99.90;;;;;;4959778;28;20034;-76
2022/03/27 00:47:39;;;;;;;13.50;7.95;;;6.20;99.90;;;;;;4986318;28;20503;-77
2022/03/27 00:50:05;;;;;;;11.43;8.30;;;6.10;99.90;;;;;;4978762;28;20041;-76
2022/03/27 00:52:36;;;;;;;12.65;8.75;;;6.10;99.90;;;;;;4978495;28;20100;-77
2022/03/27 00:55:05;;;;;;;15.43;8.77;;;6.10;99.90;;;;;;4978074;28;20106;-77
2022/03/27 00:57:31;;;;;;;11.27;8.07;;;6.00;99.90;;;;;;4978553;28;20048;-77
2022/03/27 01:00:10;;;;;;;12.93;8.45;;;6.00;99.90;;;;;;4978794;28;20456;-77
2022/03/27 01:02:41;;;;;;;11.38;8.00;;;6.00;99.90;;;;;;4978142;28;20042;-76
2022/03/27 01:05:14;;;;;;;12.43;8.13;;;5.90;99.90;;;;;;4977805;28;20057;-76
2022/03/27 01:07:42;;;;;;;11.45;8.00;;;5.90;99.90;;;;;;4978682;28;20481;-76
2022/03/27 01:10:11;;;;;;;11.85;7.72;;;5.80;99.90;;;;;;4974638;28;20123;-77
2022/03/27 01:12:39;;;;;;;10.32;7.72;;;5.80;99.90;;;;;;4977915;28;20462;-77
2022/03/27 01:15:32;;;;;;;11.88;8.13;;;5.70;99.90;;;;;;4978442;28;20111;-77
2022/03/27 01:18:05;;;;;;;13.68;8.80;;;5.70;99.90;;;;;;4977735;28;20053;-77
2022/03/27 01:20:36;;;;;;;11.02;7.82;;;5.60;99.90;;;;;;4974899;28;20085;-77
2022/03/27 01:23:08;;;;;;;12.55;7.95;;;5.60;99.90;;;;;;4974736;28;20104;-77
2022/03/27 01:25:37;;;;;;;11.77;8.23;;;5.50;99.90;;;;;;4973391;28;20107;-77
2022/03/27 01:28:11;;;;;;;12.88;8.52;;;5.50;99.90;;;;;;4977591;28;20058;-77
2022/03/27 01:30:37;;;;;;;11.27;8.25;;;5.40;99.90;;;;;;4977619;28;20048;-76
2022/03/27 01:33:09;;;;;;;12.98;8.57;;;5.40;99.90;;;;;;4977645;28;20038;-77
2022/03/27 01:35:40;;;;;;;12.52;8.15;;;5.50;99.90;;;;;;4977768;28;20046;-76
2022/03/27 01:38:09;;;;;;;12.88;9.05;;;5.40;99.90;;;;;;4977470;28;20041;-76
2022/03/27 01:40:38;;;;;;;14.90;8.98;;;5.50;99.90;;;;;;4978405;28;20041;-77
2022/03/27 01:43:09;;;;;;;14.20;9.68;;;5.50;99.90;;;;;;4977404;28;20484;-76
2022/03/27 01:45:35;;;;;;;18.73;10.93;;;5.60;99.90;;;;;;4977946;28;20045;-76
2022/03/27 01:48:03;;;;;;;17.08;11.10;;;5.60;99.90;;;;;;4977632;28;20084;-76
2022/03/27 01:50:29;;;;;;;19.10;11.70;;;5.70;99.90;;;;;;4977998;28;20334;-76
2022/03/27 01:52:58;;;;;;;22.42;12.65;;;5.70;99.90;;;;;;4976838;28;20049;-76
2022/03/27 01:55:24;;;;;;;20.90;12.95;;;5.80;99.90;;;;;;4977608;28;20041;-76
2022/03/27 01:57:52;;;;;;;20.08;11.70;;;5.90;99.90;;;;;;4977362;28;20134;-76
2022/03/27 02:00:20;;;;;;;20.45;12.60;;;5.80;99.90;;;;;;4978094;28;20038;-76
2022/03/27 02:02:46;;;;;;;19.58;11.98;;;5.80;99.90;;;;;;4977541;28;20095;-76
2022/03/27 02:05:14;;;;;;;19.52;11.95;;;5.80;99.90;;;;;;4993605;28;20046;-77
2022/03/27 02:07:45;;;;;;;23.90;14.10;;;5.80;99.90;;;;;;4974425;28;20081;-77
2022/03/27 02:10:13;;;;;;;30.73;19.92;;;5.80;99.90;;;;;;4973158;28;20049;-76
2022/03/27 02:12:39;;;;;;;33.08;21.27;;;5.80;99.90;;;;;;4957898;28;20046;-76
2022/03/27 02:15:06;;;;;;;32.05;20.00;;;5.80;99.90;;;;;;4958474;28;20046;-76
2022/03/27 02:17:32;;;;;;;31.73;19.30;;;5.80;99.90;;;;;;4962984;28;20080;-76
2022/03/27 02:20:00;;;;;;;29.42;16.90;;;5.70;99.90;;;;;;4977073;28;20065;-76
2022/03/27 02:22:25;;;;;;;27.42;17.70;;;5.70;99.90;;;;;;4979577;28;20052;-76
2022/03/27 02:24:51;;;;;;;30.55;19.70;;;5.70;99.90;;;;;;4981054;28;20046;-76
2022/03/27 02:27:17;;;;;;;27.95;18.08;;;5.70;99.90;;;;;;4981443;28;20040;-77
2022/03/27 02:29:43;;;;;;;24.73;14.75;;;5.50;99.90;;;;;;4981124;28;20041;-77
2022/03/27 02:32:11;;;;;;;19.75;13.18;;;5.50;99.90;;;;;;4980592;28;20096;-77
2022/03/27 02:34:37;;;;;;;22.27;13.95;;;5.30;99.90;;;;;;4980361;28;20095;-77
2022/03/27 02:37:03;;;;;;;23.45;14.18;;;5.20;99.90;;;;;;4996751;28;20458;-76
2022/03/27 02:39:29;;;;;;;22.58;13.60;;;5.10;99.90;;;;;;4997231;28;20127;-76
2022/03/27 02:41:57;;;;;;;20.08;13.00;;;5.00;99.90;;;;;;4980882;28;20046;-76
2022/03/27 02:44:23;;;;;;;19.98;12.80;;;5.00;99.90;;;;;;4980445;28;20080;-76
2022/03/27 02:46:50;;;;;;;21.08;12.90;;;4.90;99.90;;;;;;4980492;28;20069;-76
2022/03/27 02:49:16;;;;;;;21.42;12.90;;;4.90;99.90;;;;;;4980557;28;20033;-76
2022/03/27 02:51:45;;;;;;;20.02;12.88;;;4.70;99.90;;;;;;4980616;28;20412;-76
2022/03/27 02:54:12;;;;;;;20.40;12.40;;;4.70;99.90;;;;;;4980204;28;20050;-75
2022/03/27 02:56:38;;;;;;;20.25;12.73;;;4.60;99.90;;;;;;4980212;28;20397;-77
2022/03/27 02:59:04;;;;;;;20.58;11.52;;;4.50;99.90;;;;;;4980623;28;20606;-76
2022/03/27 03:01:31;;;;;;;17.38;11.13;;;4.50;99.90;;;;;;4980896;28;20396;-76
2022/03/27 03:03:57;;;;;;;19.65;11.45;;;4.30;99.90;;;;;;4976997;28;20038;-76
2022/03/27 03:06:26;;;;;;;18.40;11.40;;;4.30;99.90;;;;;;4961364;28;20053;-76
2022/03/27 03:08:52;;;;;;;18.63;11.20;;;4.30;99.90;;;;;;4960914;28;20046;-77
2022/03/27 03:11:20;;;;;;;16.33;10.25;;;4.30;99.90;;;;;;4969735;28;20036;-77
2022/03/27 03:13:51;;;;;;;15.27;9.52;;;4.20;99.90;;;;;;4980024;28;20124;-76
2022/03/27 03:16:17;;;;;;;16.83;9.38;;;4.20;99.90;;;;;;4993235;28;20077;-76
2022/03/27 03:18:44;;;;;;;16.58;9.57;;;4.20;99.90;;;;;;4961233;28;20077;-76
2022/03/27 03:21:13;;;;;;;14.20;8.57;;;4.10;99.90;;;;;;4960801;28;20050;-76
2022/03/27 03:23:38;;;;;;;14.07;8.80;;;4.10;99.90;;;;;;4970993;28;20096;-76
2022/03/27 03:26:05;;;;;;;16.15;8.45;;;4.20;99.90;;;;;;4962663;28;20077;-77
2022/03/27 03:28:31;;;;;;;13.15;8.25;;;4.10;99.90;;;;;;4980031;28;20045;-76
2022/03/27 03:30:57;;;;;;;13.48;7.68;;;4.00;99.90;;;;;;4976679;28;20548;-76
2022/03/27 03:33:22;;;;;;;14.30;8.35;;;4.00;99.90;;;;;;4960062;28;20138;-76
2022/03/27 03:35:48;;;;;;;13.90;7.47;;;4.00;99.90;;;;;;4992009;28;20041;-77
2022/03/27 03:38:14;;;;;;;15.82;7.65;;;4.00;99.90;;;;;;4976813;28;20038;-76
2022/03/27 03:40:41;;;;;;;12.45;7.13;;;3.90;99.90;;;;;;4993133;28;20046;-76
2022/03/27 03:43:13;;;;;;;16.40;8.23;;;3.90;99.90;;;;;;4979976;28;20137;-77
2022/03/27 03:45:38;;;;;;;14.73;7.63;;;3.90;99.90;;;;;;4979581;28;20559;-76
2022/03/27 03:48:05;;;;;;;14.57;7.50;;;3.80;99.90;;;;;;4979462;28;20125;-76
2022/03/27 03:50:33;;;;;;;17.67;7.68;;;3.80;99.90;;;;;;4996107;28;20077;-77
2022/03/27 03:52:59;;;;;;;15.15;7.20;;;3.80;99.90;;;;;;4979410;28;20080;-77
2022/03/27 03:55:26;;;;;;;16.58;8.13;;;3.90;99.90;;;;;;4979522;28;20046;-77
2022/03/27 03:57:52;;;;;;;14.98;8.00;;;3.80;99.90;;;;;;4994935;28;20048;-77
2022/03/27 04:00:18;;;;;;;15.80;7.85;;;3.80;99.90;;;;;;4980207;28;20038;-76
2022/03/27 04:02:44;;;;;;;16.40;8.38;;;3.80;99.90;;;;;;4979436;28;20026;-77
2022/03/27 04:05:09;;;;;;;16.75;8.55;;;3.80;99.90;;;;;;4979113;28;20510;-76
2022/03/27 04:07:38;;;;;;;18.27;8.13;;;3.80;99.90;;;;;;4979147;28;20129;-77
2022/03/27 04:10:04;;;;;;;17.42;7.93;;;3.80;99.90;;;;;;4995526;28;20053;-76
2022/03/27 04:12:30;;;;;;;17.23;8.40;;;3.80;99.90;;;;;;4978894;28;20091;-77
2022/03/27 04:14:56;;;;;;;15.77;8.70;;;3.70;99.90;;;;;;4979283;28;20049;-76
2022/03/27 04:17:22;;;;;;;17.85;8.95;;;3.60;99.90;;;;;;4978827;28;20038;-76
2022/03/27 04:19:48;;;;;;;18.17;8.80;;;3.60;99.90;;;;;;4978835;28;20041;-76
2022/03/27 04:22:16;;;;;;;20.95;9.82;;;3.60;99.90;;;;;;4979331;28;20443;-76
2022/03/27 04:24:42;;;;;;;17.02;8.50;;;3.50;99.90;;;;;;4978461;28;20056;-76
2022/03/27 04:27:08;;;;;;;22.00;9.85;;;3.50;99.90;;;;;;4978973;28;20046;-76
2022/03/27 04:29:34;;;;;;;20.80;10.10;;;3.50;99.90;;;;;;4978983;28;20041;-76
2022/03/27 04:32:00;;;;;;;21.40;10.43;;;3.40;99.90;;;;;;4995539;28;20052;-76
2022/03/27 04:34:25;;;;;;;20.77;10.20;;;3.30;99.90;;;;;;4978170;28;20492;-77
2022/03/27 04:36:53;;;;;;;22.73;10.48;;;3.20;99.90;;;;;;4979012;28;20042;-76
2022/03/27 04:39:22;;;;;;;22.63;9.70;;;3.20;99.90;;;;;;4978032;28;20100;-76
2022/03/27 04:41:48;;;;;;;20.73;10.75;;;3.10;99.90;;;;;;4978585;28;20077;-76
2022/03/27 04:44:14;;;;;;;25.05;10.60;;;3.10;99.90;;;;;;4977858;28;20069;-77
2022/03/27 04:46:40;;;;;;;26.25;11.90;;;3.10;99.90;;;;;;4978856;28;20095;-76
2022/03/27 04:49:05;;;;;;;28.45;12.35;;;3.10;99.90;;;;;;4978405;28;20385;-76
2022/03/27 04:51:31;;;;;;;30.27;12.00;;;3.00;99.90;;;;;;4994655;28;20037;-76
2022/03/27 04:54:00;;;;;;;33.05;11.88;;;3.00;99.90;;;;;;4977826;28;20463;-76
2022/03/27 04:56:26;;;;;;;26.52;11.77;;;3.10;99.90;;;;;;4978882;28;20045;-77
2022/03/27 04:58:52;;;;;;;25.80;13.27;;;3.10;99.90;;;;;;4994642;28;20099;-76
2022/03/27 05:01:18;;;;;;;27.45;11.93;;;3.20;99.90;;;;;;4978366;28;20377;-76
2022/03/27 05:03:44;;;;;;;30.42;12.05;;;3.20;99.90;;;;;;4994431;28;20049;-76
2022/03/27 05:06:09;;;;;;;28.92;12.45;;;3.10;99.90;;;;;;4978243;28;20063;-76
2022/03/27 05:08:35;;;;;;;31.63;12.00;;;3.10;99.90;;;;;;4977959;28;20557;-76
2022/03/27 05:11:02;;;;;;;29.42;12.32;;;3.10;99.90;;;;;;4974723;28;20463;-76
2022/03/27 05:13:31;;;;;;;28.73;11.30;;;3.10;99.90;;;;;;4974540;28;20133;-76
2022/03/27 05:15:57;;;;;;;24.38;11.13;;;3.00;99.90;;;;;;4958900;28;20170;-76
2022/03/27 05:18:22;;;;;;;22.77;11.27;;;3.00;99.90;;;;;;4988689;28;20042;-76
2022/03/27 05:20:48;;;;;;;19.85;9.75;;;2.90;99.90;;;;;;4978249;28;20299;-76
2022/03/27 05:23:14;;;;;;;23.95;10.80;;;2.80;99.90;;;;;;4977333;28;20139;-75
2022/03/27 05:25:45;;;;;;;31.42;10.85;;;2.70;99.90;;;;;;4978012;28;20129;-76
2022/03/27 05:28:16;;;;;;;24.40;11.05;;;2.60;99.90;;;;;;4977836;28;20381;-76
2022/03/27 05:30:43;;;;;;;24.15;10.48;;;2.60;99.90;;;;;;4994250;28;20080;-76
2022/03/27 05:33:11;;;;;;;20.05;10.05;;;2.50;99.90;;;;;;4977412;28;20518;-76
2022/03/27 05:35:41;;;;;;;23.20;11.07;;;2.50;99.90;;;;;;4994198;28;20034;-76
2022/03/27 05:38:07;;;;;;;20.80;9.35;;;2.40;99.90;;;;;;4977739;28;20033;-76
2022/03/27 05:40:33;;;;;;;21.77;10.20;;;2.40;99.90;;;;;;4977705;28;20042;-77
2022/03/27 05:42:58;;;;;;;24.88;10.82;;;2.40;99.90;;;;;;4977838;28;20038;-76
2022/03/27 05:45:25;;;;;;;23.13;10.65;;;2.40;99.90;;;;;;4977584;28;20042;-76
2022/03/27 05:47:55;;;;;;;22.17;10.40;;;2.40;99.90;;;;;;4977164;28;20042;-76
2022/03/27 05:50:22;;;;;;;19.27;10.70;;;2.40;99.90;;;;;;4977959;28;20045;-76
2022/03/27 05:52:49;;;;;;;22.98;9.80;;;2.40;99.90;;;;;;4993688;28;20064;-76
2022/03/27 05:55:16;;;;;;;20.40;10.52;;;2.40;99.90;;;;;;4977586;28;20038;-76
2022/03/27 05:57:42;;;;;;;22.52;10.75;;;2.40;99.90;;;;;;4981449;28;20048;-76
2022/03/27 06:00:09;;;;;;;26.13;11.05;;;2.50;99.90;;;;;;4982111;28;20136;-76
2022/03/27 06:02:37;;;;;;;21.95;11.38;;;2.60;99.90;;;;;;4997991;28;20056;-76
2022/03/27 06:05:09;;;;;;;27.02;11.35;;;2.80;99.90;;;;;;4981968;28;20046;-76
2022/03/27 06:07:42;;;;;;;35.60;13.38;;;2.80;99.90;;;;;;4981573;28;20071;-77
2022/03/27 06:10:09;;;;;;;33.95;12.68;;;3.10;99.90;;;;;;4981462;28;20038;-76
2022/03/27 06:12:35;;;;;;;37.45;12.52;;;3.30;99.90;;;;;;4981390;28;20095;-77
2022/03/27 06:15:00;;;;;;;47.13;14.10;;;3.50;99.90;;;;;;4997247;28;20038;-77
2022/03/27 06:17:26;;;;;;;50.70;13.82;;;3.70;99.90;;;;;;4980822;28;20038;-77
2022/03/27 06:19:52;;;;;;;52.63;14.40;;;4.00;99.90;;;;;;4980880;28;20381;-76
2022/03/27 06:22:18;;;;;;;59.03;16.33;;;4.20;99.90;;;;;;4997225;28;20400;-76
2022/03/27 06:24:49;;;;;;;51.90;16.00;;;4.40;99.90;;;;;;4981148;28;20132;-76
2022/03/27 06:27:17;;;;;;;47.22;15.88;;;4.50;99.90;;;;;;4981029;28;20065;-77
2022/03/27 06:29:48;;;;;;;52.50;15.02;;;4.70;99.90;;;;;;4980331;28;20049;-75
2022/03/27 06:32:14;;;;;;;46.05;13.07;;;4.80;99.90;;;;;;4977754;28;20129;-76
2022/03/27 06:34:39;;;;;;;40.45;13.05;;;5.00;99.90;;;;;;4961277;28;20133;-77
2022/03/27 06:37:13;;;;;;;41.72;12.82;;;5.20;99.90;;;;;;4961624;28;20481;-77
2022/03/27 06:39:44;;;;;;;40.28;14.07;;;5.30;99.90;;;;;;4977847;28;20152;-77
2022/03/27 06:42:13;;;;;;;41.83;12.55;;;5.40;99.90;;;;;;4980297;28;20115;-78
2022/03/27 06:44:44;;;;;;;39.92;13.00;;;5.50;99.90;;;;;;4978851;28;20054;-79
2022/03/27 06:47:16;;;;;;;36.00;12.05;;;5.60;99.90;;;;;;4979224;28;20400;-78
2022/03/27 06:49:58;;;;;;;37.15;11.48;;;5.70;99.90;;;;;;4981510;28;20038;-78
2022/03/27 06:52:26;;;;;;;34.13;11.80;;;5.80;99.90;;;;;;4979208;28;20516;-78
2022/03/27 06:55:29;;;;;;;40.42;11.15;;;5.90;99.90;;;;;;4987262;28;20048;-80
2022/03/27 07:04:33;;;;;;;35.03;11.57;;;6.20;99.90;;;;;;4996409;28;20108;-78
2022/03/27 07:07:10;;;;;;;34.83;11.88;;;6.30;99.90;;;;;;4996340;28;20041;-78
2022/03/27 07:09:48;;;;;;;29.80;11.57;;;6.30;99.90;;;;;;4980204;28;20041;-78
2022/03/27 07:12:25;;;;;;;30.77;11.07;;;6.40;99.90;;;;;;4996777;28;20499;-78
2022/03/27 07:14:59;;;;;;;29.63;11.10;;;6.50;99.90;;;;;;4993687;28;20061;-77
2022/03/27 07:17:33;;;;;;;38.95;12.23;;;6.50;99.90;;;;;;4996950;28;20049;-78
2022/03/27 07:20:09;;;;;;;32.75;11.05;;;6.60;99.90;;;;;;4980757;28;20465;-78
2022/03/27 07:22:44;;;;;;;33.42;12.90;;;6.50;99.90;;;;;;4979807;28;20038;-79
2022/03/27 07:25:14;;;;;;;36.55;12.13;;;6.60;99.90;;;;;;4995731;28;20484;-78
2022/03/27 07:27:41;;;;;;;39.35;12.57;;;6.60;99.90;;;;;;4980093;28;20179;-78
2022/03/27 07:30:11;;;;;;;31.58;11.73;;;6.70;99.90;;;;;;4977500;28;20046;-78
2022/03/27 07:32:41;;;;;;;36.00;11.05;;;6.90;99.90;;;;;;4961469;28;20042;-78
2022/03/27 07:35:14;;;;;;;29.10;10.20;;;7.00;99.90;;;;;;4980421;28;20562;-78
2022/03/27 07:37:49;;;;;;;30.15;9.80;;;7.30;99.90;;;;;;4980009;28;20125;-79
2022/03/27 07:40:20;;;;;;;29.20;10.07;;;7.40;99.90;;;;;;4979627;28;20033;-78
2022/03/27 07:43:00;;;;;;;28.63;10.35;;;7.50;99.90;;;;;;4996563;28;20074;-78
2022/03/27 07:45:35;;;;;;;29.50;10.15;;;7.40;99.90;;;;;;4980091;28;20053;-78
2022/03/27 07:48:08;;;;;;;28.85;11.55;;;7.50;99.90;;;;;;4995462;28;20519;-78
2022/03/27 07:50:45;;;;;;;27.92;10.68;;;7.70;99.90;;;;;;4964860;28;20042;-78
2022/03/27 07:53:19;;;;;;;31.02;10.25;;;7.80;99.90;;;;;;4964682;28;20045;-78
2022/03/27 07:55:45;;;;;;;26.42;10.35;;;7.80;99.90;;;;;;4979699;28;20408;-79
2022/03/27 07:58:20;;;;;;;23.33;9.45;;;7.70;99.90;;;;;;4996501;28;20042;-78
2022/03/27 08:00:49;;;;;;;27.35;10.55;;;8.00;99.90;;;;;;4979015;28;20049;-76
2022/03/27 08:03:27;;;;;;;29.00;12.48;;;8.10;99.90;;;;;;4978899;28;20574;-76
2022/03/27 08:06:04;;;;;;;26.92;9.30;;;8.30;99.90;;;;;;4996162;28;20798;-76
2022/03/27 08:08:34;;;;;;;28.65;9.40;;;8.30;99.90;;;;;;4979076;28;20072;-77
2022/03/27 08:11:02;;;;;;;25.10;9.40;;;8.20;99.90;;;;;;4979222;28;20488;-77
2022/03/27 08:13:33;;;;;;;22.45;9.63;;;8.20;99.90;;;;;;4977489;28;20053;-76
2022/03/27 08:16:02;;;;;;;27.92;9.90;;;8.00;99.90;;;;;;4979313;28;20489;-76
2022/03/27 08:18:39;;;;;;;26.60;8.98;;;7.90;99.90;;;;;;4964356;28;20045;-76
2022/03/27 08:21:19;;;;;;;26.73;9.20;;;7.90;99.90;;;;;;4996945;28;20161;-78
2022/03/27 08:23:54;;;;;;;35.28;11.52;;;8.00;99.90;;;;;;4978197;28;20049;-78
2022/03/27 08:29:29;;;;;;;25.95;9.13;;;8.10;99.90;;;;;;5012583;28;19917;-79
2022/03/27 08:32:04;;;;;;;31.00;9.45;;;8.10;99.90;;;;;;4994407;28;20041;-78
2022/03/27 08:34:37;;;;;;;28.95;9.05;;;8.10;99.90;;;;;;4962082;28;20097;-77
2022/03/27 08:37:13;;;;;;;31.40;9.20;;;8.20;99.90;;;;;;4979285;28;20103;-78
2022/03/27 08:40:08;;;;;;;26.35;8.57;;;8.50;99.90;;;;;;4974401;28;20055;-78
2022/03/27 08:42:41;;;;;;;31.52;8.80;;;8.80;99.90;;;;;;4943333;28;20556;-77
2022/03/27 08:45:19;;;;;;;26.07;9.63;;;9.10;99.90;;;;;;4944549;28;20038;-77
2022/03/27 08:47:54;;;;;;;23.77;6.90;;;9.40;99.90;;;;;;4974980;28;20474;-77
2022/03/27 08:51:07;;;;;;;21.52;7.68;;;9.20;99.90;;;;;;4960467;28;20417;-77
2022/03/27 08:54:31;;;;;;;27.98;7.88;;;9.20;99.90;;;;;;4987153;28;20051;-80
2022/03/27 08:58:19;;;;;;;20.23;8.20;;;10.00;99.90;;;;;;4876638;29;20049;-79
2022/03/27 09:01:14;;;;;;;21.98;7.93;;;10.80;99.90;;;;;;4829904;29;20053;-78
2022/03/27 09:03:40;;;;;;;20.90;7.03;;;11.40;99.90;;;;;;4858106;29;20171;-77
2022/03/27 09:06:36;;;;;;;21.27;6.10;;;11.70;99.90;;;;;;4900456;29;20070;-76
2022/03/27 09:09:05;;;;;;;18.90;6.93;;;12.10;99.90;;;;;;4952298;28;20469;-76
2022/03/27 09:11:39;;;;;;;23.05;6.80;;;12.50;99.90;;;;;;4975445;28;20514;-77
2022/03/27 09:14:08;;;;;;;18.65;5.93;;;12.90;99.90;;;;;;4974824;28;20048;-76
2022/03/27 09:17:15;;;;;;;19.98;5.82;;;13.00;99.90;;;;;;4975894;28;20042;-77
2022/03/27 09:20:42;;;;;;;19.60;6.93;;;13.30;99.10;;;;;;4982025;28;20064;-77
2022/03/27 09:23:35;;;;;;;19.08;6.60;;;13.60;98.30;;;;;;4971927;28;20050;-77
2022/03/27 09:26:32;;;;;;;22.55;7.38;;;13.90;99.90;;;;;;4991233;28;20484;-77
2022/03/27 09:29:30;;;;;;;24.52;6.47;;;14.20;99.60;;;;;;4976709;28;20080;-76
2022/03/27 09:32:08;;;;;;;20.17;5.55;;;14.50;98.20;;;;;;4973761;28;20224;-77
2022/03/27 09:35:12;;;;;;;19.52;6.20;;;14.60;90.10;;;;;;4969353;28;20051;-77
2022/03/27 09:40:45;;;;;;;23.85;5.53;;;14.20;98.90;;;;;;5069635;22;20096;-78
2022/03/27 09:46:46;;;;;;;25.05;6.63;;;15.10;97.60;;;;;;4936207;29;20047;-76
2022/03/27 09:50:18;;;;;;;;;;;;;;;;;;;;;
2022/03/27 09:52:44;;;;;;;19.88;5.72;;;15.20;80.10;;;;;;5007645;23;20089;-75
2022/03/27 09:55:10;;;;;;;15.50;5.28;;;15.20;94.40;;;;;;4953506;28;20035;-76
2022/03/27 09:57:42;;;;;;;15.65;5.63;;;15.60;81.00;;;;;;4974035;28;20039;-76
2022/03/27 10:00:11;;;;;;;18.33;5.03;;;15.60;79.00;;;;;;4971582;28;20038;-77
2022/03/27 10:02:37;;;;;;;19.05;4.85;;;15.60;86.60;;;;;;4974214;28;20042;-75
2022/03/27 10:05:16;;;;;;;14.60;5.60;;;15.70;82.60;;;;;;4971093;28;20050;-78
2022/03/27 10:07:50;;;;;;;17.40;4.78;;;16.00;67.80;;;;;;4971444;28;20449;-77
2022/03/27 10:10:18;;;;;;;21.02;5.38;;;15.70;70.20;;;;;;4955150;28;20035;-76
2022/03/27 10:12:49;;;;;;;18.05;5.18;;;15.50;76.10;;;;;;4970447;28;20098;-76
2022/03/27 10:15:19;;;;;;;16.85;5.15;;;15.70;73.10;;;;;;4970595;28;20054;-76
2022/03/27 10:18:13;;;;;;;15.60;5.03;;;15.80;73.00;;;;;;4970887;28;20094;-76
2022/03/27 10:20:39;;;;;;;16.40;4.00;;;16.00;75.10;;;;;;4970980;28;20161;-77
2022/03/27 10:23:14;;;;;;;13.25;4.32;;;16.20;79.00;;;;;;4970595;28;20046;-76
2022/03/27 10:25:47;;;;;;;16.52;4.68;;;16.60;57.10;;;;;;4939985;28;20051;-76
2022/03/27 10:28:14;;;;;;;15.18;4.90;;;16.50;59.10;;;;;;4970768;28;20524;-76
2022/03/27 10:30:41;;;;;;;15.10;5.18;;;16.20;60.60;;;;;;4970841;28;20504;-76
2022/03/27 10:33:08;;;;;;;15.10;4.05;;;16.10;66.50;;;;;;4970088;28;20034;-76
2022/03/27 10:36:03;;;;;;;16.23;4.65;;;16.40;66.80;;;;;;4954879;28;20051;-76
2022/03/27 10:39:17;;;;;;;18.27;4.43;;;16.60;57.80;;;;;;4951820;29;20090;-77
2022/03/27 10:42:19;;;;;;;14.98;4.53;;;16.90;59.00;;;;;;4930055;28;20054;-74
2022/03/27 10:45:03;;;;;;;13.57;4.65;;;16.80;57.60;;;;;;4968078;28;20445;-76
2022/03/27 10:47:29;;;;;;;12.02;4.40;;;16.70;57.40;;;;;;4974337;28;20050;-76
2022/03/27 10:50:01;;;;;;;18.05;4.25;;;16.90;53.40;;;;;;4972794;28;20074;-76
2022/03/27 10:52:27;;;;;;;16.45;4.90;;;16.60;56.50;;;;;;4971664;28;20039;-76
2022/03/27 10:55:07;;;;;;;13.75;4.45;;;16.70;57.80;;;;;;4973515;28;20401;-78
2022/03/27 10:57:35;;;;;;;27.50;5.32;;;16.60;57.00;;;;;;4974102;28;20042;-75
2022/03/27 11:00:03;;;;;;;13.93;4.47;;;16.70;59.60;;;;;;4955132;28;20042;-78
2022/03/27 11:02:50;;;;;;;11.25;3.97;;;16.90;56.50;;;;;;4938682;29;20059;-77
2022/03/27 11:05:36;;;;;;;15.68;4.45;;;17.10;56.50;;;;;;4955206;29;20054;-77
2022/03/27 11:08:17;;;;;;;13.48;4.30;;;17.30;55.40;;;;;;4966356;28;20511;-77
2022/03/27 11:10:45;;;;;;;14.23;4.15;;;17.50;55.70;;;;;;4973888;28;20089;-77
2022/03/27 11:13:26;;;;;;;13.95;4.07;;;17.80;53.80;;;;;;4973734;28;20485;-77
2022/03/27 11:16:02;;;;;;;13.52;4.50;;;17.90;55.90;;;;;;4957927;28;20046;-77
2022/03/27 11:18:43;;;;;;;14.82;4.65;;;18.10;55.00;;;;;;4957832;28;20043;-78
2022/03/27 11:21:11;;;;;;;14.10;3.90;;;18.50;53.30;;;;;;4973850;28;20049;-77
2022/03/27 11:23:43;;;;;;;14.98;4.20;;;18.80;50.90;;;;;;4973690;28;20117;-78
2022/03/27 11:26:20;;;;;;;16.20;4.30;;;18.80;50.00;;;;;;4973870;28;20071;-77
2022/03/27 11:28:48;;;;;;;14.70;4.15;;;19.00;50.50;;;;;;4956081;28;20050;-78
2022/03/27 11:31:16;;;;;;;16.15;4.28;;;19.20;49.60;;;;;;4973733;28;20039;-78
2022/03/27 11:33:44;;;;;;;14.85;3.58;;;19.20;50.20;;;;;;4973643;28;20153;-78
2022/03/27 11:36:11;;;;;;;13.70;4.00;;;19.40;49.00;;;;;;4973714;28;20047;-78
2022/03/27 11:39:04;;;;;;;17.58;4.13;;;19.30;48.70;;;;;;4957452;28;20049;-78
2022/03/27 11:41:43;;;;;;;13.73;4.40;;;19.50;50.40;;;;;;4971516;28;20102;-78
2022/03/27 11:47:32;;;;;;;13.15;4.15;;;20.40;48.70;;;;;;4973648;28;20057;-78
2022/03/27 11:49:58;;;;;;;14.85;4.40;;;20.60;45.20;;;;;;4973342;28;20460;-78
2022/03/27 11:52:23;;;;;;;13.80;3.90;;;20.20;46.20;;;;;;4957152;28;20043;-77
2022/03/27 11:54:49;;;;;;;12.07;4.40;;;20.00;47.10;;;;;;4973013;28;20070;-78
2022/03/27 11:57:16;;;;;;;14.93;4.45;;;19.90;47.70;;;;;;4973131;28;20039;-78
2022/03/27 11:59:49;;;;;;;10.60;3.65;;;20.00;48.00;;;;;;4957167;28;20038;-78
2022/03/27 12:02:16;;;;;;;17.90;4.65;;;20.10;48.00;;;;;;4973139;28;20038;-78
2022/03/27 12:04:52;;;;;;;15.75;4.40;;;20.00;46.80;;;;;;4973124;28;20093;-77
2022/03/27 12:07:19;;;;;;;16.20;4.45;;;19.90;47.00;;;;;;4972910;28;20046;-77
2022/03/27 12:09:54;;;;;;;13.20;4.03;;;19.90;49.20;;;;;;4973030;28;20042;-77
2022/03/27 12:12:20;;;;;;;16.50;4.07;;;20.30;47.70;;;;;;4973035;28;20039;-77
2022/03/27 12:14:54;;;;;;;13.73;3.75;;;20.70;49.20;;;;;;4972741;28;20515;-78
2022/03/27 12:17:31;;;;;;;15.60;3.80;;;21.10;45.40;;;;;;4972810;28;20050;-78
2022/03/27 12:20:06;;;;;;;15.30;4.45;;;20.90;44.60;;;;;;4956844;28;20050;-78
2022/03/27 12:22:37;;;;;;;14.60;5.03;;;20.70;45.40;;;;;;4972595;28;20089;-77
2022/03/27 12:25:17;;;;;;;14.40;4.50;;;20.90;44.70;;;;;;4972752;28;20130;-77
2022/03/27 12:30:36;;;;;;;13.80;4.80;;;21.00;45.90;;;;;;4972689;28;20047;-77
2022/03/27 12:33:05;;;;;;;13.23;3.88;;;21.30;44.80;;;;;;4972225;28;20497;-77
2022/03/27 12:35:32;;;;;;;12.95;4.05;;;21.30;46.20;;;;;;4972584;28;20034;-77
2022/03/27 12:37:58;;;;;;;17.15;4.72;;;21.30;47.00;;;;;;4972493;28;20400;-77
2022/03/27 12:40:25;;;;;;;13.88;3.83;;;21.60;48.00;;;;;;4972690;28;20397;-77
2022/03/27 12:43:08;;;;;;;12.95;3.90;;;22.20;47.70;;;;;;4972242;28;20121;-77
2022/03/27 12:45:36;;;;;;;14.30;4.05;;;22.50;44.80;;;;;;4972715;28;20125;-78
2022/03/27 12:48:23;;;;;;;16.75;4.70;;;22.20;42.90;;;;;;4972142;28;20043;-77
2022/03/27 12:50:57;;;;;;;16.58;4.25;;;21.80;43.90;;;;;;4972270;28;20386;-77
2022/03/27 12:53:23;;;;;;;16.15;4.72;;;21.60;44.50;;;;;;4971937;28;20114;-77
2022/03/27 12:55:59;;;;;;;11.85;3.67;;;21.60;46.80;;;;;;4956434;28;20486;-77
2022/03/27 12:58:38;;;;;;;13.93;3.92;;;22.00;45.60;;;;;;4972123;28;20039;-77
2022/03/27 13:01:05;;;;;;;14.43;3.53;;;22.00;46.00;;;;;;4955770;28;20089;-77
2022/03/27 13:03:31;;;;;;;12.13;3.83;;;22.10;45.30;;;;;;4971779;28;20121;-78
2022/03/27 13:05:56;;;;;;;13.23;4.07;;;22.10;43.10;;;;;;4971513;28;20130;-78
2022/03/27 13:08:27;;;;;;;12.93;3.63;;;21.70;43.60;;;;;;4956008;28;20042;-78
2022/03/27 13:10:57;;;;;;;15.85;4.05;;;21.60;44.60;;;;;;4972012;28;20046;-78
2022/03/27 13:13:32;;;;;;;18.05;4.82;;;21.50;43.60;;;;;;4971517;28;20042;-77
2022/03/27 13:15:58;;;;;;;13.10;3.90;;;21.20;44.40;;;;;;4972000;28;20046;-77
2022/03/27 13:18:32;;;;;;;13.93;3.85;;;21.20;44.60;;;;;;4972191;28;20031;-77
2022/03/27 13:21:11;;;;;;;12.07;4.10;;;21.30;44.90;;;;;;4971892;28;20067;-77
2022/03/27 13:23:37;;;;;;;11.80;4.55;;;21.60;44.40;;;;;;4971530;28;20047;-77
2022/03/27 13:26:02;;;;;;;14.85;4.10;;;21.50;43.40;;;;;;4971667;28;20117;-77